sensor_id;sensor_type;location;lat;lon;timestamp;temperature;humidity
85940;DHT22;76505;46.706;12.340;2024-02-28T00:00:34;7.2;66.8
85940;DHT22;76505;46.706;12.340;2024-02-28T00:01:34;7.2;66.7
85940;DHT22;76505;46.706;12.340;2024-02-28T00:02:34;7.1;66.7
85940;DHT22;76505;46.706;12.340;2024-02-28T00:03:34;7.1;66.7
85940;DHT22;76505;46.706;12.340;2024-02-28T00:04:34;7.1;66.8
85940;DHT22;76505;46.706;12.340;2024-02-28T00:05:34;7.1;66.7
85940;DHT22;76505;46.706;12.340;2024-02-28T00:06:34;7.1;66.5
85940;DHT22;76505;46.706;12.340;2024-02-28T00:07:35;7.2;66.7
85940;DHT22;76505;46.706;12.340;2024-02-28T00:08:36;7.2;66.9
85940;DHT22;76505;46.706;12.340;2024-02-28T00:09:34;7.1;66.9
85940;DHT22;76505;46.706;12.340;2024-02-28T00:10:34;7.0;66.9
85940;DHT22;76505;46.706;12.340;2024-02-28T00:11:34;7.1;66.8
85940;DHT22;76505;46.706;12.340;2024-02-28T00:12:35;7.2;67.0
85940;DHT22;76505;46.706;12.340;2024-02-28T00:13:34;7.2;66.8
85940;DHT22;76505;46.706;12.340;2024-02-28T00:14:34;7.1;66.8
85940;DHT22;76505;46.706;12.340;2024-02-28T00:15:34;7.2;66.8
85940;DHT22;76505;46.706;12.340;2024-02-28T00:16:34;7.2;66.9
85940;DHT22;76505;46.706;12.340;2024-02-28T00:17:34;7.1;66.8
85940;DHT22;76505;46.706;12.340;2024-02-28T00:18:34;7.1;67.0
85940;DHT22;76505;46.706;12.340;2024-02-28T00:19:34;7.1;66.9
85940;DHT22;76505;46.706;12.340;2024-02-28T00:20:39;7.2;66.9
85940;DHT22;76505;46.706;12.340;2024-02-28T00:21:34;7.2;66.9
85940;DHT22;76505;46.706;12.340;2024-02-28T00:22:35;7.1;67.0
85940;DHT22;76505;46.706;12.340;2024-02-28T00:23:34;7.1;67.0
85940;DHT22;76505;46.706;12.340;2024-02-28T00:24:34;7.1;66.8
85940;DHT22;76505;46.706;12.340;2024-02-28T00:25:34;7.1;66.8
85940;DHT22;76505;46.706;12.340;2024-02-28T00:26:34;7.2;66.8
85940;DHT22;76505;46.706;12.340;2024-02-28T00:27:34;7.1;66.8
85940;DHT22;76505;46.706;12.340;2024-02-28T00:28:34;7.2;66.9
85940;DHT22;76505;46.706;12.340;2024-02-28T00:29:34;7.1;66.9
85940;DHT22;76505;46.706;12.340;2024-02-28T00:30:34;7.1;66.8
85940;DHT22;76505;46.706;12.340;2024-02-28T00:31:34;7.2;66.7
85940;DHT22;76505;46.706;12.340;2024-02-28T00:32:34;7.1;66.6
85940;DHT22;76505;46.706;12.340;2024-02-28T00:33:34;7.1;66.6
85940;DHT22;76505;46.706;12.340;2024-02-28T00:34:34;7.1;66.7
85940;DHT22;76505;46.706;12.340;2024-02-28T00:35:34;7.1;66.9
85940;DHT22;76505;46.706;12.340;2024-02-28T00:36:34;7.1;66.9
85940;DHT22;76505;46.706;12.340;2024-02-28T00:37:34;7.0;67.2
85940;DHT22;76505;46.706;12.340;2024-02-28T00:38:34;7.0;67.2
85940;DHT22;76505;46.706;12.340;2024-02-28T00:39:34;6.9;67.4
85940;DHT22;76505;46.706;12.340;2024-02-28T00:40:35;7.0;67.3
85940;DHT22;76505;46.706;12.340;2024-02-28T00:41:34;7.0;67.2
85940;DHT22;76505;46.706;12.340;2024-02-28T00:42:34;7.0;67.0
85940;DHT22;76505;46.706;12.340;2024-02-28T00:43:34;7.0;67.0
85940;DHT22;76505;46.706;12.340;2024-02-28T00:44:34;7.0;67.0
85940;DHT22;76505;46.706;12.340;2024-02-28T00:45:34;7.0;67.1
85940;DHT22;76505;46.706;12.340;2024-02-28T00:46:34;7.1;67.0
85940;DHT22;76505;46.706;12.340;2024-02-28T00:47:34;7.1;66.9
85940;DHT22;76505;46.706;12.340;2024-02-28T00:48:34;7.2;66.8
85940;DHT22;76505;46.706;12.340;2024-02-28T00:49:34;7.1;66.9
85940;DHT22;76505;46.706;12.340;2024-02-28T00:50:34;7.2;66.7
85940;DHT22;76505;46.706;12.340;2024-02-28T00:51:34;7.1;66.7
85940;DHT22;76505;46.706;12.340;2024-02-28T00:52:34;7.1;66.7
85940;DHT22;76505;46.706;12.340;2024-02-28T00:53:34;7.1;66.6
85940;DHT22;76505;46.706;12.340;2024-02-28T00:54:34;7.1;66.7
85940;DHT22;76505;46.706;12.340;2024-02-28T00:55:34;7.1;66.8
85940;DHT22;76505;46.706;12.340;2024-02-28T00:56:34;7.1;66.8
85940;DHT22;76505;46.706;12.340;2024-02-28T00:57:34;7.1;66.7
85940;DHT22;76505;46.706;12.340;2024-02-28T00:58:34;7.2;66.7
85940;DHT22;76505;46.706;12.340;2024-02-28T00:59:34;7.2;66.7
85940;DHT22;76505;46.706;12.340;2024-02-28T01:00:34;7.2;66.6
85940;DHT22;76505;46.706;12.340;2024-02-28T01:01:34;7.1;66.6
85940;DHT22;76505;46.706;12.340;2024-02-28T01:02:34;7.1;66.7
85940;DHT22;76505;46.706;12.340;2024-02-28T01:03:34;7.2;66.7
85940;DHT22;76505;46.706;12.340;2024-02-28T01:04:34;7.2;66.8
85940;DHT22;76505;46.706;12.340;2024-02-28T01:05:34;7.2;66.7
85940;DHT22;76505;46.706;12.340;2024-02-28T01:06:34;7.1;66.7
85940;DHT22;76505;46.706;12.340;2024-02-28T01:07:34;7.2;66.8
85940;DHT22;76505;46.706;12.340;2024-02-28T01:08:34;7.1;66.8
85940;DHT22;76505;46.706;12.340;2024-02-28T01:09:34;7.1;66.9
85940;DHT22;76505;46.706;12.340;2024-02-28T01:10:34;7.1;66.9
85940;DHT22;76505;46.706;12.340;2024-02-28T01:11:34;7.1;66.9
85940;DHT22;76505;46.706;12.340;2024-02-28T01:12:34;7.2;66.8
85940;DHT22;76505;46.706;12.340;2024-02-28T01:13:34;7.0;67.0
85940;DHT22;76505;46.706;12.340;2024-02-28T01:14:34;7.0;66.9
85940;DHT22;76505;46.706;12.340;2024-02-28T01:15:34;7.1;66.9
85940;DHT22;76505;46.706;12.340;2024-02-28T01:16:34;7.1;66.7
85940;DHT22;76505;46.706;12.340;2024-02-28T01:17:34;7.2;66.9
85940;DHT22;76505;46.706;12.340;2024-02-28T01:18:39;7.1;66.9
85940;DHT22;76505;46.706;12.340;2024-02-28T01:19:34;7.1;66.9
85940;DHT22;76505;46.706;12.340;2024-02-28T01:20:34;7.1;66.8
85940;DHT22;76505;46.706;12.340;2024-02-28T01:21:34;7.1;67.1
85940;DHT22;76505;46.706;12.340;2024-02-28T01:22:34;7.1;67.1
85940;DHT22;76505;46.706;12.340;2024-02-28T01:23:34;7.1;67.1
85940;DHT22;76505;46.706;12.340;2024-02-28T01:24:34;7.1;66.9
85940;DHT22;76505;46.706;12.340;2024-02-28T01:25:34;7.1;66.9
85940;DHT22;76505;46.706;12.340;2024-02-28T01:26:34;7.1;67.0
85940;DHT22;76505;46.706;12.340;2024-02-28T01:27:34;7.2;67.0
85940;DHT22;76505;46.706;12.340;2024-02-28T01:28:34;7.2;66.9
85940;DHT22;76505;46.706;12.340;2024-02-28T01:29:34;7.2;66.9
85940;DHT22;76505;46.706;12.340;2024-02-28T01:30:34;7.2;67.0
85940;DHT22;76505;46.706;12.340;2024-02-28T01:31:34;7.2;67.1
85940;DHT22;76505;46.706;12.340;2024-02-28T01:32:34;7.1;67.0
85940;DHT22;76505;46.706;12.340;2024-02-28T01:33:34;7.2;67.0
85940;DHT22;76505;46.706;12.340;2024-02-28T01:34:34;7.2;67.0
85940;DHT22;76505;46.706;12.340;2024-02-28T01:35:34;7.2;66.9
85940;DHT22;76505;46.706;12.340;2024-02-28T01:36:34;7.1;66.8
85940;DHT22;76505;46.706;12.340;2024-02-28T01:37:34;7.2;66.9
85940;DHT22;76505;46.706;12.340;2024-02-28T01:38:34;7.2;66.8
85940;DHT22;76505;46.706;12.340;2024-02-28T01:39:34;7.2;66.8
85940;DHT22;76505;46.706;12.340;2024-02-28T01:40:34;7.3;66.9
85940;DHT22;76505;46.706;12.340;2024-02-28T01:41:34;7.2;66.8
85940;DHT22;76505;46.706;12.340;2024-02-28T01:42:39;7.2;66.9
85940;DHT22;76505;46.706;12.340;2024-02-28T01:43:34;7.2;66.9
85940;DHT22;76505;46.706;12.340;2024-02-28T01:44:38;7.2;66.7
85940;DHT22;76505;46.706;12.340;2024-02-28T01:45:34;7.2;66.7
85940;DHT22;76505;46.706;12.340;2024-02-28T01:46:34;7.3;66.7
85940;DHT22;76505;46.706;12.340;2024-02-28T01:47:34;7.2;66.6
85940;DHT22;76505;46.706;12.340;2024-02-28T01:48:34;7.2;66.7
85940;DHT22;76505;46.706;12.340;2024-02-28T01:49:34;7.2;66.6
85940;DHT22;76505;46.706;12.340;2024-02-28T01:50:34;7.2;66.7
85940;DHT22;76505;46.706;12.340;2024-02-28T01:51:35;7.2;66.7
85940;DHT22;76505;46.706;12.340;2024-02-28T01:52:34;7.2;67.0
85940;DHT22;76505;46.706;12.340;2024-02-28T01:53:34;7.2;66.9
85940;DHT22;76505;46.706;12.340;2024-02-28T01:54:34;7.2;67.0
85940;DHT22;76505;46.706;12.340;2024-02-28T01:55:34;7.3;67.0
85940;DHT22;76505;46.706;12.340;2024-02-28T01:56:34;7.2;66.9
85940;DHT22;76505;46.706;12.340;2024-02-28T01:57:34;7.2;66.9
85940;DHT22;76505;46.706;12.340;2024-02-28T01:58:34;7.2;67.0
85940;DHT22;76505;46.706;12.340;2024-02-28T01:59:34;7.2;66.9
85940;DHT22;76505;46.706;12.340;2024-02-28T02:00:34;7.2;66.8
85940;DHT22;76505;46.706;12.340;2024-02-28T02:01:34;7.2;66.7
85940;DHT22;76505;46.706;12.340;2024-02-28T02:02:39;7.3;66.8
85940;DHT22;76505;46.706;12.340;2024-02-28T02:03:35;7.2;66.9
85940;DHT22;76505;46.706;12.340;2024-02-28T02:04:34;7.2;67.1
85940;DHT22;76505;46.706;12.340;2024-02-28T02:05:34;7.2;67.0
85940;DHT22;76505;46.706;12.340;2024-02-28T02:06:37;7.2;66.9
85940;DHT22;76505;46.706;12.340;2024-02-28T02:07:34;7.2;67.0
85940;DHT22;76505;46.706;12.340;2024-02-28T02:08:34;7.2;67.0
85940;DHT22;76505;46.706;12.340;2024-02-28T02:09:35;7.2;67.0
85940;DHT22;76505;46.706;12.340;2024-02-28T02:10:34;7.2;66.9
85940;DHT22;76505;46.706;12.340;2024-02-28T02:11:34;7.3;66.9
85940;DHT22;76505;46.706;12.340;2024-02-28T02:12:34;7.2;66.9
85940;DHT22;76505;46.706;12.340;2024-02-28T02:13:36;7.2;66.9
85940;DHT22;76505;46.706;12.340;2024-02-28T02:14:34;7.2;67.0
85940;DHT22;76505;46.706;12.340;2024-02-28T02:15:34;7.2;67.1
85940;DHT22;76505;46.706;12.340;2024-02-28T02:16:34;7.2;66.9
85940;DHT22;76505;46.706;12.340;2024-02-28T02:17:34;7.2;67.0
85940;DHT22;76505;46.706;12.340;2024-02-28T02:18:34;7.2;66.9
85940;DHT22;76505;46.706;12.340;2024-02-28T02:19:34;7.2;66.7
85940;DHT22;76505;46.706;12.340;2024-02-28T02:20:39;7.3;66.9
85940;DHT22;76505;46.706;12.340;2024-02-28T02:21:37;7.2;66.8
85940;DHT22;76505;46.706;12.340;2024-02-28T02:22:34;7.3;66.8
85940;DHT22;76505;46.706;12.340;2024-02-28T02:23:34;7.2;66.8
85940;DHT22;76505;46.706;12.340;2024-02-28T02:24:34;7.2;66.9
85940;DHT22;76505;46.706;12.340;2024-02-28T02:25:34;7.2;66.8
85940;DHT22;76505;46.706;12.340;2024-02-28T02:26:34;7.2;67.0
85940;DHT22;76505;46.706;12.340;2024-02-28T02:27:34;7.2;67.0
85940;DHT22;76505;46.706;12.340;2024-02-28T02:28:34;7.3;66.8
85940;DHT22;76505;46.706;12.340;2024-02-28T02:29:34;7.3;66.8
85940;DHT22;76505;46.706;12.340;2024-02-28T02:30:34;7.3;66.9
85940;DHT22;76505;46.706;12.340;2024-02-28T02:31:34;7.3;66.8
85940;DHT22;76505;46.706;12.340;2024-02-28T02:32:34;7.2;66.8
85940;DHT22;76505;46.706;12.340;2024-02-28T02:33:34;7.3;66.7
85940;DHT22;76505;46.706;12.340;2024-02-28T02:34:34;7.3;66.6
85940;DHT22;76505;46.706;12.340;2024-02-28T02:35:34;7.3;66.8
85940;DHT22;76505;46.706;12.340;2024-02-28T02:36:34;7.3;66.6
85940;DHT22;76505;46.706;12.340;2024-02-28T02:37:34;7.3;66.8
85940;DHT22;76505;46.706;12.340;2024-02-28T02:38:34;7.2;66.7
85940;DHT22;76505;46.706;12.340;2024-02-28T02:39:34;7.3;66.8
85940;DHT22;76505;46.706;12.340;2024-02-28T02:40:34;7.3;66.7
85940;DHT22;76505;46.706;12.340;2024-02-28T02:41:34;7.3;66.8
85940;DHT22;76505;46.706;12.340;2024-02-28T02:42:34;7.3;66.8
85940;DHT22;76505;46.706;12.340;2024-02-28T02:43:34;7.3;66.7
85940;DHT22;76505;46.706;12.340;2024-02-28T02:44:34;7.3;66.6
85940;DHT22;76505;46.706;12.340;2024-02-28T02:45:34;7.3;66.5
85940;DHT22;76505;46.706;12.340;2024-02-28T02:46:34;7.3;66.7
85940;DHT22;76505;46.706;12.340;2024-02-28T02:47:34;7.3;67.0
85940;DHT22;76505;46.706;12.340;2024-02-28T02:48:34;7.3;67.2
85940;DHT22;76505;46.706;12.340;2024-02-28T02:49:34;7.2;67.3
85940;DHT22;76505;46.706;12.340;2024-02-28T02:50:34;7.2;67.2
85940;DHT22;76505;46.706;12.340;2024-02-28T02:51:34;7.3;67.2
85940;DHT22;76505;46.706;12.340;2024-02-28T02:52:34;7.2;67.3
85940;DHT22;76505;46.706;12.340;2024-02-28T02:53:34;7.2;67.3
85940;DHT22;76505;46.706;12.340;2024-02-28T02:54:34;7.1;67.2
85940;DHT22;76505;46.706;12.340;2024-02-28T02:55:34;7.2;67.2
85940;DHT22;76505;46.706;12.340;2024-02-28T02:56:34;7.2;67.2
85940;DHT22;76505;46.706;12.340;2024-02-28T02:57:35;7.1;67.2
85940;DHT22;76505;46.706;12.340;2024-02-28T02:58:34;7.1;67.3
85940;DHT22;76505;46.706;12.340;2024-02-28T02:59:35;7.2;67.4
85940;DHT22;76505;46.706;12.340;2024-02-28T03:00:34;7.1;67.3
85940;DHT22;76505;46.706;12.340;2024-02-28T03:01:34;7.1;67.1
85940;DHT22;76505;46.706;12.340;2024-02-28T03:02:34;7.2;67.2
85940;DHT22;76505;46.706;12.340;2024-02-28T03:03:34;7.2;67.0
85940;DHT22;76505;46.706;12.340;2024-02-28T03:04:34;7.2;67.2
85940;DHT22;76505;46.706;12.340;2024-02-28T03:05:34;7.2;66.9
85940;DHT22;76505;46.706;12.340;2024-02-28T03:06:34;7.2;66.9
85940;DHT22;76505;46.706;12.340;2024-02-28T03:07:34;7.2;66.8
85940;DHT22;76505;46.706;12.340;2024-02-28T03:08:34;7.2;66.9
85940;DHT22;76505;46.706;12.340;2024-02-28T03:09:34;7.2;67.0
85940;DHT22;76505;46.706;12.340;2024-02-28T03:10:34;7.1;67.4
85940;DHT22;76505;46.706;12.340;2024-02-28T03:11:35;7.0;67.5
85940;DHT22;76505;46.706;12.340;2024-02-28T03:12:34;6.9;68.0
85940;DHT22;76505;46.706;12.340;2024-02-28T03:13:34;6.9;68.1
85940;DHT22;76505;46.706;12.340;2024-02-28T03:14:35;6.9;68.0
85940;DHT22;76505;46.706;12.340;2024-02-28T03:15:34;7.0;67.7
85940;DHT22;76505;46.706;12.340;2024-02-28T03:16:41;7.0;67.6
85940;DHT22;76505;46.706;12.340;2024-02-28T03:17:34;7.0;67.5
85940;DHT22;76505;46.706;12.340;2024-02-28T03:18:34;7.1;67.5
85940;DHT22;76505;46.706;12.340;2024-02-28T03:19:36;7.1;67.3
85940;DHT22;76505;46.706;12.340;2024-02-28T03:20:34;7.1;67.4
85940;DHT22;76505;46.706;12.340;2024-02-28T03:21:34;7.1;67.4
85940;DHT22;76505;46.706;12.340;2024-02-28T03:22:34;7.1;67.3
85940;DHT22;76505;46.706;12.340;2024-02-28T03:23:34;7.1;67.3
85940;DHT22;76505;46.706;12.340;2024-02-28T03:24:36;7.1;67.1
85940;DHT22;76505;46.706;12.340;2024-02-28T03:25:34;7.2;67.2
85940;DHT22;76505;46.706;12.340;2024-02-28T03:26:34;7.1;67.0
85940;DHT22;76505;46.706;12.340;2024-02-28T03:27:34;7.1;67.0
85940;DHT22;76505;46.706;12.340;2024-02-28T03:28:34;7.2;67.1
85940;DHT22;76505;46.706;12.340;2024-02-28T03:29:34;7.3;66.9
85940;DHT22;76505;46.706;12.340;2024-02-28T03:30:34;7.2;66.8
85940;DHT22;76505;46.706;12.340;2024-02-28T03:31:34;7.1;67.0
85940;DHT22;76505;46.706;12.340;2024-02-28T03:32:34;7.2;67.0
85940;DHT22;76505;46.706;12.340;2024-02-28T03:33:35;7.2;66.9
85940;DHT22;76505;46.706;12.340;2024-02-28T03:34:34;7.1;67.1
85940;DHT22;76505;46.706;12.340;2024-02-28T03:35:34;7.1;67.1
85940;DHT22;76505;46.706;12.340;2024-02-28T03:36:35;7.2;67.0
85940;DHT22;76505;46.706;12.340;2024-02-28T03:37:34;7.1;67.1
85940;DHT22;76505;46.706;12.340;2024-02-28T03:38:34;7.2;67.1
85940;DHT22;76505;46.706;12.340;2024-02-28T03:39:34;7.1;67.2
85940;DHT22;76505;46.706;12.340;2024-02-28T03:40:34;7.1;67.2
85940;DHT22;76505;46.706;12.340;2024-02-28T03:41:34;7.0;67.2
85940;DHT22;76505;46.706;12.340;2024-02-28T03:42:35;7.1;67.1
85940;DHT22;76505;46.706;12.340;2024-02-28T03:43:34;7.2;67.2
85940;DHT22;76505;46.706;12.340;2024-02-28T03:44:34;7.1;66.9
85940;DHT22;76505;46.706;12.340;2024-02-28T03:45:37;7.2;66.9
85940;DHT22;76505;46.706;12.340;2024-02-28T03:46:34;7.1;67.0
85940;DHT22;76505;46.706;12.340;2024-02-28T03:47:34;7.1;67.0
85940;DHT22;76505;46.706;12.340;2024-02-28T03:48:34;7.1;67.2
85940;DHT22;76505;46.706;12.340;2024-02-28T03:49:34;7.1;67.0
85940;DHT22;76505;46.706;12.340;2024-02-28T03:50:34;7.2;67.1
85940;DHT22;76505;46.706;12.340;2024-02-28T03:51:39;7.1;66.9
85940;DHT22;76505;46.706;12.340;2024-02-28T03:52:34;7.2;67.0
85940;DHT22;76505;46.706;12.340;2024-02-28T03:53:34;7.2;67.1
85940;DHT22;76505;46.706;12.340;2024-02-28T03:54:34;7.1;66.9
85940;DHT22;76505;46.706;12.340;2024-02-28T03:55:34;7.2;67.0
85940;DHT22;76505;46.706;12.340;2024-02-28T03:56:35;7.1;67.0
85940;DHT22;76505;46.706;12.340;2024-02-28T03:57:34;7.2;67.0
85940;DHT22;76505;46.706;12.340;2024-02-28T03:58:34;7.1;67.1
85940;DHT22;76505;46.706;12.340;2024-02-28T03:59:34;7.1;67.1
85940;DHT22;76505;46.706;12.340;2024-02-28T04:00:34;7.1;67.0
85940;DHT22;76505;46.706;12.340;2024-02-28T04:01:34;7.1;67.1
85940;DHT22;76505;46.706;12.340;2024-02-28T04:02:34;7.0;67.2
85940;DHT22;76505;46.706;12.340;2024-02-28T04:03:34;7.1;67.4
85940;DHT22;76505;46.706;12.340;2024-02-28T04:04:34;6.9;67.9
85940;DHT22;76505;46.706;12.340;2024-02-28T04:05:34;7.0;67.7
85940;DHT22;76505;46.706;12.340;2024-02-28T04:06:34;6.9;67.8
85940;DHT22;76505;46.706;12.340;2024-02-28T04:07:34;6.9;68.0
85940;DHT22;76505;46.706;12.340;2024-02-28T04:08:34;6.9;68.0
85940;DHT22;76505;46.706;12.340;2024-02-28T04:09:34;6.9;67.9
85940;DHT22;76505;46.706;12.340;2024-02-28T04:10:34;7.0;67.7
85940;DHT22;76505;46.706;12.340;2024-02-28T04:11:37;7.0;67.5
85940;DHT22;76505;46.706;12.340;2024-02-28T04:12:34;6.9;67.6
85940;DHT22;76505;46.706;12.340;2024-02-28T04:13:34;7.0;67.6
85940;DHT22;76505;46.706;12.340;2024-02-28T04:14:37;7.0;67.5
85940;DHT22;76505;46.706;12.340;2024-02-28T04:15:34;7.0;67.4
85940;DHT22;76505;46.706;12.340;2024-02-28T04:16:34;7.0;67.3
85940;DHT22;76505;46.706;12.340;2024-02-28T04:17:34;7.1;67.1
85940;DHT22;76505;46.706;12.340;2024-02-28T04:18:34;7.1;67.1
85940;DHT22;76505;46.706;12.340;2024-02-28T04:19:34;7.0;67.1
85940;DHT22;76505;46.706;12.340;2024-02-28T04:20:34;7.1;67.1
85940;DHT22;76505;46.706;12.340;2024-02-28T04:21:34;7.1;66.9
85940;DHT22;76505;46.706;12.340;2024-02-28T04:22:34;7.1;67.1
85940;DHT22;76505;46.706;12.340;2024-02-28T04:23:34;7.1;67.1
85940;DHT22;76505;46.706;12.340;2024-02-28T04:24:34;7.1;67.0
85940;DHT22;76505;46.706;12.340;2024-02-28T04:25:35;7.1;66.9
85940;DHT22;76505;46.706;12.340;2024-02-28T04:26:34;7.1;67.0
85940;DHT22;76505;46.706;12.340;2024-02-28T04:27:34;7.1;66.8
85940;DHT22;76505;46.706;12.340;2024-02-28T04:28:40;7.1;66.8
85940;DHT22;76505;46.706;12.340;2024-02-28T04:29:34;7.0;66.9
85940;DHT22;76505;46.706;12.340;2024-02-28T04:30:34;7.1;66.9
85940;DHT22;76505;46.706;12.340;2024-02-28T04:31:34;7.1;66.8
85940;DHT22;76505;46.706;12.340;2024-02-28T04:32:36;7.1;66.9
85940;DHT22;76505;46.706;12.340;2024-02-28T04:33:34;7.2;66.7
85940;DHT22;76505;46.706;12.340;2024-02-28T04:34:36;7.2;66.7
85940;DHT22;76505;46.706;12.340;2024-02-28T04:35:34;7.1;66.8
85940;DHT22;76505;46.706;12.340;2024-02-28T04:36:34;7.1;66.6
85940;DHT22;76505;46.706;12.340;2024-02-28T04:37:35;7.2;66.6
85940;DHT22;76505;46.706;12.340;2024-02-28T04:38:34;7.1;66.8
85940;DHT22;76505;46.706;12.340;2024-02-28T04:39:34;7.1;66.9
85940;DHT22;76505;46.706;12.340;2024-02-28T04:40:34;7.1;66.8
85940;DHT22;76505;46.706;12.340;2024-02-28T04:41:34;7.1;66.7
85940;DHT22;76505;46.706;12.340;2024-02-28T04:42:34;7.1;67.0
85940;DHT22;76505;46.706;12.340;2024-02-28T04:43:34;7.0;66.8
85940;DHT22;76505;46.706;12.340;2024-02-28T04:44:34;7.0;67.8
85940;DHT22;76505;46.706;12.340;2024-02-28T04:45:34;7.0;67.2
85940;DHT22;76505;46.706;12.340;2024-02-28T04:46:34;7.1;67.1
85940;DHT22;76505;46.706;12.340;2024-02-28T04:47:34;7.1;67.0
85940;DHT22;76505;46.706;12.340;2024-02-28T04:48:34;7.0;66.9
85940;DHT22;76505;46.706;12.340;2024-02-28T04:49:36;7.1;66.9
85940;DHT22;76505;46.706;12.340;2024-02-28T04:50:34;7.1;67.0
85940;DHT22;76505;46.706;12.340;2024-02-28T04:51:34;7.2;67.0
85940;DHT22;76505;46.706;12.340;2024-02-28T04:52:34;7.1;67.1
85940;DHT22;76505;46.706;12.340;2024-02-28T04:53:34;7.1;67.0
85940;DHT22;76505;46.706;12.340;2024-02-28T04:54:34;7.1;67.0
85940;DHT22;76505;46.706;12.340;2024-02-28T04:55:34;7.1;66.9
85940;DHT22;76505;46.706;12.340;2024-02-28T04:56:39;7.1;67.1
85940;DHT22;76505;46.706;12.340;2024-02-28T04:57:34;7.0;67.2
85940;DHT22;76505;46.706;12.340;2024-02-28T04:58:35;7.0;67.2
85940;DHT22;76505;46.706;12.340;2024-02-28T04:59:34;7.1;67.2
85940;DHT22;76505;46.706;12.340;2024-02-28T05:00:34;7.2;67.2
85940;DHT22;76505;46.706;12.340;2024-02-28T05:01:35;7.0;67.3
85940;DHT22;76505;46.706;12.340;2024-02-28T05:02:34;7.1;67.2
85940;DHT22;76505;46.706;12.340;2024-02-28T05:03:34;7.1;67.1
85940;DHT22;76505;46.706;12.340;2024-02-28T05:04:34;7.1;67.2
85940;DHT22;76505;46.706;12.340;2024-02-28T05:05:34;7.2;67.1
85940;DHT22;76505;46.706;12.340;2024-02-28T05:06:34;7.1;67.3
85940;DHT22;76505;46.706;12.340;2024-02-28T05:07:34;7.2;67.2
85940;DHT22;76505;46.706;12.340;2024-02-28T05:08:37;7.2;67.2
85940;DHT22;76505;46.706;12.340;2024-02-28T05:09:34;7.1;67.0
85940;DHT22;76505;46.706;12.340;2024-02-28T05:10:35;7.2;67.3
85940;DHT22;76505;46.706;12.340;2024-02-28T05:11:34;7.2;67.3
85940;DHT22;76505;46.706;12.340;2024-02-28T05:12:34;7.1;68.3
85940;DHT22;76505;46.706;12.340;2024-02-28T05:13:35;7.2;67.7
85940;DHT22;76505;46.706;12.340;2024-02-28T05:14:34;7.2;67.7
85940;DHT22;76505;46.706;12.340;2024-02-28T05:15:34;7.2;67.5
85940;DHT22;76505;46.706;12.340;2024-02-28T05:16:34;7.2;67.5
85940;DHT22;76505;46.706;12.340;2024-02-28T05:17:34;7.3;67.6
85940;DHT22;76505;46.706;12.340;2024-02-28T05:18:34;7.2;67.8
85940;DHT22;76505;46.706;12.340;2024-02-28T05:19:34;7.1;67.8
85940;DHT22;76505;46.706;12.340;2024-02-28T05:20:34;7.1;67.9
85940;DHT22;76505;46.706;12.340;2024-02-28T05:21:40;7.0;67.8
85940;DHT22;76505;46.706;12.340;2024-02-28T05:22:34;7.0;68.1
85940;DHT22;76505;46.706;12.340;2024-02-28T05:23:34;7.0;68.1
85940;DHT22;76505;46.706;12.340;2024-02-28T05:24:34;7.0;68.0
85940;DHT22;76505;46.706;12.340;2024-02-28T05:25:34;7.0;67.9
85940;DHT22;76505;46.706;12.340;2024-02-28T05:26:36;7.1;67.8
85940;DHT22;76505;46.706;12.340;2024-02-28T05:27:34;7.1;67.8
85940;DHT22;76505;46.706;12.340;2024-02-28T05:28:35;7.1;67.6
85940;DHT22;76505;46.706;12.340;2024-02-28T05:29:34;7.1;67.5
85940;DHT22;76505;46.706;12.340;2024-02-28T05:30:34;7.1;67.4
85940;DHT22;76505;46.706;12.340;2024-02-28T05:31:34;7.1;67.4
85940;DHT22;76505;46.706;12.340;2024-02-28T05:32:34;7.1;67.5
85940;DHT22;76505;46.706;12.340;2024-02-28T05:33:34;7.1;67.5
85940;DHT22;76505;46.706;12.340;2024-02-28T05:34:34;7.1;67.4
85940;DHT22;76505;46.706;12.340;2024-02-28T05:35:34;7.1;67.4
85940;DHT22;76505;46.706;12.340;2024-02-28T05:36:34;7.0;67.4
85940;DHT22;76505;46.706;12.340;2024-02-28T05:37:35;7.2;67.4
85940;DHT22;76505;46.706;12.340;2024-02-28T05:38:34;7.1;67.4
85940;DHT22;76505;46.706;12.340;2024-02-28T05:39:35;7.2;67.4
85940;DHT22;76505;46.706;12.340;2024-02-28T05:40:34;7.2;67.3
85940;DHT22;76505;46.706;12.340;2024-02-28T05:41:34;7.1;67.6
85940;DHT22;76505;46.706;12.340;2024-02-28T05:42:34;7.1;67.6
85940;DHT22;76505;46.706;12.340;2024-02-28T05:43:34;7.1;67.7
85940;DHT22;76505;46.706;12.340;2024-02-28T05:44:35;7.1;67.6
85940;DHT22;76505;46.706;12.340;2024-02-28T05:45:34;7.0;67.7
85940;DHT22;76505;46.706;12.340;2024-02-28T05:46:34;7.1;67.6
85940;DHT22;76505;46.706;12.340;2024-02-28T05:47:34;7.2;67.5
85940;DHT22;76505;46.706;12.340;2024-02-28T05:48:34;7.1;67.5
85940;DHT22;76505;46.706;12.340;2024-02-28T05:49:34;7.2;67.4
85940;DHT22;76505;46.706;12.340;2024-02-28T05:50:34;7.2;67.5
85940;DHT22;76505;46.706;12.340;2024-02-28T05:51:34;7.1;67.4
85940;DHT22;76505;46.706;12.340;2024-02-28T05:52:34;7.2;67.5
85940;DHT22;76505;46.706;12.340;2024-02-28T05:53:36;7.1;67.3
85940;DHT22;76505;46.706;12.340;2024-02-28T05:54:34;7.1;67.4
85940;DHT22;76505;46.706;12.340;2024-02-28T05:55:34;7.2;67.3
85940;DHT22;76505;46.706;12.340;2024-02-28T05:56:34;7.1;67.4
85940;DHT22;76505;46.706;12.340;2024-02-28T05:57:34;7.2;67.4
85940;DHT22;76505;46.706;12.340;2024-02-28T05:58:34;7.2;67.3
85940;DHT22;76505;46.706;12.340;2024-02-28T05:59:34;7.2;67.2
85940;DHT22;76505;46.706;12.340;2024-02-28T06:00:34;7.2;67.2
85940;DHT22;76505;46.706;12.340;2024-02-28T06:01:34;7.2;67.3
85940;DHT22;76505;46.706;12.340;2024-02-28T06:02:34;7.2;67.4
85940;DHT22;76505;46.706;12.340;2024-02-28T06:03:34;7.2;67.4
85940;DHT22;76505;46.706;12.340;2024-02-28T06:04:35;7.2;67.3
85940;DHT22;76505;46.706;12.340;2024-02-28T06:05:34;7.2;67.2
85940;DHT22;76505;46.706;12.340;2024-02-28T06:06:34;7.2;67.1
85940;DHT22;76505;46.706;12.340;2024-02-28T06:07:34;7.3;67.1
85940;DHT22;76505;46.706;12.340;2024-02-28T06:08:35;7.3;67.2
85940;DHT22;76505;46.706;12.340;2024-02-28T06:09:34;7.3;67.2
85940;DHT22;76505;46.706;12.340;2024-02-28T06:10:34;7.3;67.1
85940;DHT22;76505;46.706;12.340;2024-02-28T06:11:34;7.3;67.2
85940;DHT22;76505;46.706;12.340;2024-02-28T06:12:34;7.3;67.1
85940;DHT22;76505;46.706;12.340;2024-02-28T06:13:34;7.2;67.2
85940;DHT22;76505;46.706;12.340;2024-02-28T06:14:34;7.2;67.4
85940;DHT22;76505;46.706;12.340;2024-02-28T06:15:34;7.3;67.3
85940;DHT22;76505;46.706;12.340;2024-02-28T06:16:34;7.3;67.3
85940;DHT22;76505;46.706;12.340;2024-02-28T06:17:34;7.2;67.3
85940;DHT22;76505;46.706;12.340;2024-02-28T06:18:34;7.2;67.4
85940;DHT22;76505;46.706;12.340;2024-02-28T06:19:34;7.2;67.4
85940;DHT22;76505;46.706;12.340;2024-02-28T06:20:34;7.3;67.4
85940;DHT22;76505;46.706;12.340;2024-02-28T06:21:34;7.2;67.2
85940;DHT22;76505;46.706;12.340;2024-02-28T06:22:34;7.3;67.3
85940;DHT22;76505;46.706;12.340;2024-02-28T06:23:34;7.2;67.1
85940;DHT22;76505;46.706;12.340;2024-02-28T06:24:34;7.3;67.3
85940;DHT22;76505;46.706;12.340;2024-02-28T06:25:35;7.3;67.2
85940;DHT22;76505;46.706;12.340;2024-02-28T06:26:34;7.3;67.0
85940;DHT22;76505;46.706;12.340;2024-02-28T06:27:34;7.3;67.0
85940;DHT22;76505;46.706;12.340;2024-02-28T06:28:34;7.3;67.2
85940;DHT22;76505;46.706;12.340;2024-02-28T06:29:35;7.3;67.2
85940;DHT22;76505;46.706;12.340;2024-02-28T06:30:34;7.3;67.2
85940;DHT22;76505;46.706;12.340;2024-02-28T06:31:34;7.3;67.0